Time;durP1;ratioP1;P1;durP2;ratioP2;P2;SDS_P1;SDS_P2;PMS_P1;PMS_P2;Temp;Humidity;BMP_temperature;BMP_pressure;BME280_temperature;BME280_humidity;BME280_pressure;Samples;Min_cycle;Max_cycle;Signal;HPM_P1;HPM_P2
2022/01/09 00:00:11;;;;;;;23.95;16.27;;;;;;;0.57;85.84;99814.58;1565941;91;21578;-79
2022/01/09 00:02:37;;;;;;;23.22;15.20;;;;;;;0.56;85.82;99809.47;1548297;91;21495;-79
2022/01/09 00:05:05;;;;;;;24.07;15.78;;;;;;;0.55;85.80;99806.49;1542763;91;25868;-79
2022/01/09 00:07:31;;;;;;;17.80;13.43;;;;;;;0.53;85.80;99810.29;1556410;91;21452;-80
2022/01/09 00:09:57;;;;;;;20.50;14.50;;;;;;;0.54;85.80;99804.79;1543219;91;21675;-80
2022/01/09 00:12:24;;;;;;;19.70;14.73;;;;;;;0.53;85.80;99800.12;1542229;92;21577;-80
2022/01/09 00:14:51;;;;;;;19.98;15.35;;;;;;;0.52;85.80;99802.67;1542418;91;21639;-80
2022/01/09 00:17:18;;;;;;;18.70;14.50;;;;;;;0.52;85.80;99802.23;1568404;88;21411;-80
2022/01/09 00:19:44;;;;;;;24.32;16.42;;;;;;;0.52;85.83;99798.41;1571934;88;21149;-79
2022/01/09 00:22:12;;;;;;;20.52;14.33;;;;;;;0.54;85.82;99794.61;1555561;91;25354;-79
2022/01/09 00:24:38;;;;;;;21.35;15.55;;;;;;;0.56;85.87;99805.23;1560828;90;21033;-79
2022/01/09 00:27:04;;;;;;;22.20;15.48;;;;;;;0.57;85.86;99793.38;1577212;89;20976;-79
2022/01/09 00:29:30;;;;;;;22.70;15.55;;;;;;;0.59;85.88;99784.92;1570692;90;21655;-79
2022/01/09 00:31:56;;;;;;;19.12;14.58;;;;;;;0.61;85.81;99783.67;1576724;90;21709;-79
2022/01/09 00:34:23;;;;;;;22.75;16.12;;;;;;;0.59;85.77;99782.80;1576886;90;21569;-80
2022/01/09 00:36:49;;;;;;;21.45;15.43;;;;;;;0.58;85.81;99779.41;1576938;90;21743;-80
2022/01/09 00:39:15;;;;;;;21.40;15.88;;;;;;;0.61;85.85;99776.04;1557529;90;21609;-80
2022/01/09 00:41:41;;;;;;;24.30;16.25;;;;;;;0.63;85.83;99773.09;1552567;90;22347;-80
2022/01/09 00:44:07;;;;;;;30.00;18.37;;;;;;;0.63;85.83;99768.86;1552538;92;20965;-80
2022/01/09 00:46:33;;;;;;;26.35;17.32;;;;;;;0.63;85.84;99763.77;1574393;90;21153;-79
2022/01/09 00:49:04;;;;;;;24.67;17.62;;;;;;;0.63;85.83;99761.64;1562062;90;21111;-79
2022/01/09 00:51:31;;;;;;;20.32;14.45;;;;;;;0.63;85.83;99756.14;1552427;92;21674;-79
2022/01/09 00:53:57;;;;;;;22.15;13.95;;;;;;;0.62;85.82;99754.44;1554718;90;20969;-79
2022/01/09 00:56:23;;;;;;;20.30;14.30;;;;;;;0.61;85.80;99750.19;1562424;89;21570;-79
2022/01/09 00:58:49;;;;;;;19.05;13.65;;;;;;;0.61;85.82;99751.45;1554689;92;21559;-79
2022/01/09 01:01:16;;;;;;;15.15;12.05;;;;;;;0.62;85.80;99753.16;1554630;92;21457;-80
2022/01/09 01:03:42;;;;;;;16.20;12.28;;;;;;;0.64;85.81;99744.27;1567619;90;21502;-79
2022/01/09 01:06:08;;;;;;;16.80;12.90;;;;;;;0.64;85.81;99746.40;1578981;90;20914;-79
2022/01/09 01:08:34;;;;;;;19.20;13.15;;;;;;;0.64;85.80;99732.83;1563067;90;21738;-79
2022/01/09 01:11:00;;;;;;;17.40;13.00;;;;;;;0.65;85.80;99731.57;1557064;90;21512;-79
2022/01/09 01:13:26;;;;;;;19.27;12.70;;;;;;;0.65;85.78;99724.36;1567990;90;20990;-79
2022/01/09 01:15:52;;;;;;;17.25;13.38;;;;;;;0.64;85.75;99722.65;1554533;92;20942;-79
2022/01/09 01:18:18;;;;;;;19.80;12.63;;;;;;;0.62;85.76;99725.59;1554523;92;21406;-79
2022/01/09 01:20:44;;;;;;;18.30;13.45;;;;;;;0.62;85.77;99722.64;1567695;90;21444;-79
2022/01/09 01:23:10;;;;;;;18.50;13.27;;;;;;;0.62;85.76;99725.18;1579089;90;21006;-79
2022/01/09 01:25:36;;;;;;;16.05;12.63;;;;;;;0.61;85.77;99717.11;1562178;89;21667;-79
2022/01/09 01:28:04;;;;;;;18.90;13.38;;;;;;;0.62;85.78;99715.42;1561717;90;21491;-79
2022/01/09 01:30:30;;;;;;;16.97;12.00;;;;;;;0.62;85.78;99706.52;1555424;90;26381;-79
2022/01/09 01:32:56;;;;;;;17.48;11.78;;;;;;;0.62;85.77;99701.02;1554334;92;20938;-79
2022/01/09 01:35:22;;;;;;;14.40;11.15;;;;;;;0.63;85.77;99698.91;1554802;92;20994;-79
2022/01/09 01:37:48;;;;;;;14.93;11.88;;;;;;;0.63;85.77;99689.14;1559547;90;21006;-79
2022/01/09 01:40:18;;;;;;;17.95;12.20;;;;;;;0.63;85.74;99687.45;1578645;90;21037;-79
2022/01/09 01:42:46;;;;;;;17.95;12.63;;;;;;;0.65;85.77;99684.50;1578887;90;20934;-79
2022/01/09 01:45:13;;;;;;;18.27;12.37;;;;;;;0.64;85.73;99676.86;1562052;90;21668;-79
2022/01/09 01:47:40;;;;;;;20.00;13.13;;;;;;;0.63;85.73;99670.92;1528815;92;21032;-79
2022/01/09 01:50:11;;;;;;;14.40;10.90;;;;;;;0.61;85.70;99675.14;1552565;92;21097;-79
2022/01/09 01:52:42;;;;;;;13.55;10.65;;;;;;;0.58;85.68;99662.81;1553412;90;21150;-79
2022/01/09 01:55:09;;;;;;;13.83;11.10;;;;;;;0.56;85.71;99653.90;1546147;91;21145;-79
2022/01/09 01:57:40;;;;;;;17.02;12.75;;;;;;;0.55;85.75;99653.89;1571052;89;21708;-79
2022/01/09 02:00:11;;;;;;;17.00;12.47;;;;;;;0.54;85.74;99642.86;1562835;90;21005;-79
2022/01/09 02:02:36;;;;;;;20.57;14.07;;;;;;;0.54;85.75;99638.19;1546569;91;21665;-79
2022/01/09 02:05:07;;;;;;;26.93;14.30;;;;;;;0.51;85.74;99633.96;1560120;91;21047;-79
2022/01/09 02:07:34;;;;;;;23.40;14.83;;;;;;;0.50;85.77;99635.22;1554291;91;21138;-79
2022/01/09 02:10:00;;;;;;;21.82;14.68;;;;;;;0.48;85.75;99621.64;1546627;91;21903;-79
2022/01/09 02:12:26;;;;;;;19.87;13.50;;;;;;;0.45;85.74;99622.47;1546728;91;21113;-79
2022/01/09 02:14:52;;;;;;;;;;;;;;;0.40;85.70;99621.58;1551567;91;21145;-79
2022/01/09 02:17:21;;;;;;;19.65;13.45;;;;;;;0.35;85.66;99618.13;1570818;90;20247;-79
2022/01/09 02:19:56;;;;;;;22.75;14.20;;;;;;;0.29;85.62;99613.84;1553473;91;21161;-79
2022/01/09 02:22:26;;;;;;;20.37;14.93;;;;;;;0.24;85.64;99604.47;1570506;91;21118;-79
2022/01/09 02:24:52;;;;;;;25.35;17.07;;;;;;;0.19;85.67;99604.84;1570854;91;21134;-79
2022/01/09 02:27:18;;;;;;;32.13;18.20;;;;;;;0.15;85.67;99598.88;1533851;91;21047;-79
2022/01/09 02:29:48;;;;;;;35.17;19.50;;;;;;;0.11;85.65;99603.92;1528950;92;20944;-79
2022/01/09 02:32:19;;;;;;;32.78;19.27;;;;;;;0.06;85.67;99606.83;1527700;92;21100;-79
2022/01/09 02:34:47;;;;;;;35.98;19.70;;;;;;;0.00;85.67;99603.84;1543795;92;20881;-79
2022/01/09 02:37:13;;;;;;;33.85;19.67;;;;;;;-0.08;85.65;99593.59;1524251;90;21674;-79
2022/01/09 02:39:39;;;;;;;33.13;18.07;;;;;;;-0.14;85.65;99588.87;1520524;92;20943;-79
2022/01/09 02:42:20;;;;;;;31.27;17.80;;;;;;;-0.19;85.72;99583.74;1520581;94;21721;-79
2022/01/09 02:44:46;;;;;;;28.85;16.95;;;;;;;-0.22;85.69;99573.55;1528434;92;20986;-79
2022/01/09 02:47:12;;;;;;;28.27;18.30;;;;;;;-0.27;85.67;99571.80;1526465;93;20930;-79
2022/01/09 02:49:39;;;;;;;37.15;21.02;;;;;;;-0.32;85.68;99563.27;1514450;94;20943;-79
2022/01/09 02:52:11;;;;;;;35.52;20.35;;;;;;;-0.38;85.67;99559.83;1532171;92;20960;-79
2022/01/09 02:57:18;;;;;;;33.50;19.85;;;;;;;-0.47;85.68;99541.09;1540531;91;20933;-79
2022/01/09 02:59:44;;;;;;;33.70;20.60;;;;;;;-0.49;85.68;99547.84;1527875;92;22711;-79
2022/01/09 03:02:10;;;;;;;46.83;31.00;;;;;;;-0.54;85.68;99544.02;1520825;94;20920;-79
2022/01/09 03:04:36;;;;;;;36.93;21.68;;;;;;;-0.57;85.72;99549.06;1522593;92;21580;-79
2022/01/09 03:07:03;;;;;;;37.80;19.67;;;;;;;-0.61;85.65;99547.32;1544131;92;20965;-79
2022/01/09 03:09:29;;;;;;;40.00;21.20;;;;;;;-0.66;85.67;99545.14;1544171;92;22634;-79
2022/01/09 03:11:55;;;;;;;35.65;22.00;;;;;;;-0.69;85.67;99550.19;1540460;92;20907;-79
2022/01/09 03:14:21;;;;;;;36.53;20.00;;;;;;;-0.75;85.66;99552.23;1520796;93;20960;-79
2022/01/09 03:16:47;;;;;;;36.08;19.07;;;;;;;-0.80;85.57;99550.47;1520763;94;21495;-79
2022/01/09 03:19:13;;;;;;;31.55;18.57;;;;;;;-0.85;85.57;99550.83;1519555;94;20979;-79
2022/01/09 03:21:39;;;;;;;34.20;18.53;;;;;;;-0.91;85.57;99541.86;1518873;92;20920;-79
2022/01/09 03:24:05;;;;;;;37.93;20.25;;;;;;;-0.96;85.58;99545.61;1518582;94;21197;-79
2022/01/09 03:26:31;;;;;;;39.73;19.80;;;;;;;-0.98;85.59;99545.16;1531161;92;21018;-79
2022/01/09 03:28:57;;;;;;;39.43;20.43;;;;;;;-1.02;85.57;99544.26;1545775;92;20893;-79
2022/01/09 03:31:23;;;;;;;38.83;20.90;;;;;;;-1.05;85.60;99540.45;1525527;92;21185;-79
2022/01/09 03:33:49;;;;;;;40.23;20.85;;;;;;;-1.08;85.62;99534.91;1518587;94;21117;-79
2022/01/09 03:36:15;;;;;;;38.42;21.37;;;;;;;-1.10;85.62;99523.89;1518772;94;21018;-79
2022/01/09 03:38:41;;;;;;;38.83;20.60;;;;;;;-1.12;85.69;99514.56;1524637;92;21783;-79
2022/01/09 03:41:07;;;;;;;42.08;22.67;;;;;;;-1.11;85.71;99517.12;1557808;90;20984;-79
2022/01/09 03:43:33;;;;;;;50.70;32.28;;;;;;;-1.16;85.60;99514.94;1527755;92;21082;-79
2022/01/09 03:46:00;;;;;;;40.10;21.30;;;;;;;-1.19;85.65;99514.90;1536853;92;21079;-79
2022/01/09 03:48:25;;;;;;;42.50;22.98;;;;;;;-1.22;85.58;99515.27;1542241;92;21188;-79
2022/01/09 03:50:52;;;;;;;45.73;25.52;;;;;;;-1.26;85.58;99513.11;1520698;92;21013;-79
2022/01/09 03:53:18;;;;;;;40.60;22.62;;;;;;;-1.27;85.65;99518.16;1519513;94;21055;-79
2022/01/09 03:55:44;;;;;;;39.80;21.97;;;;;;;-1.29;85.59;99519.82;1524849;91;21128;-79
2022/01/09 03:58:10;;;;;;;42.50;22.20;;;;;;;-1.35;85.50;99525.24;1541962;92;20984;-79
2022/01/09 04:00:36;;;;;;;40.78;22.20;;;;;;;-1.40;85.42;99529.81;1524117;92;21151;-79
2022/01/09 04:03:02;;;;;;;35.20;21.40;;;;;;;-1.48;85.37;99538.98;1518354;94;21154;-79
2022/01/09 04:05:28;;;;;;;42.75;21.87;;;;;;;-1.55;85.27;99534.65;1526020;92;21059;-79
2022/01/09 04:07:54;;;;;;;47.80;24.05;;;;;;;-1.64;85.28;99532.00;1541592;92;21032;-79
2022/01/09 04:10:24;;;;;;;44.95;24.95;;;;;;;-1.69;85.36;99531.52;1515726;91;614760;-79
2022/01/09 04:12:51;;;;;;;45.08;25.32;;;;;;;-1.70;85.51;99526.02;1543337;91;21190;-79
2022/01/09 04:15:18;;;;;;;53.02;26.65;;;;;;;-1.69;85.63;99531.52;1522094;93;21202;-79
2022/01/09 04:17:55;;;;;;;47.48;26.05;;;;;;;-1.71;85.52;99532.32;1526964;92;21455;-79
2022/01/09 04:20:25;;;;;;;52.95;26.65;;;;;;;-1.73;85.63;99522.58;1526607;92;21021;-80
2022/01/09 04:22:51;;;;;;;52.75;26.85;;;;;;;-1.78;85.52;99522.50;1526451;92;21567;-79
2022/01/09 04:25:18;;;;;;;;;;;;;;;-1.80;85.60;99524.16;1534318;91;20979;-79
2022/01/09 04:27:46;;;;;;;;;;;;;;;-1.82;85.55;99522.02;1598236;89;20114;-79
2022/01/09 04:30:12;;;;;;;47.80;24.25;;;;;;;-1.87;85.51;99516.44;1576603;89;20118;-79
2022/01/09 04:32:39;;;;;;;50.75;25.12;;;;;;;-1.93;85.41;99518.87;1571231;91;20940;-79
2022/01/09 04:35:07;;;;;;;52.85;27.50;;;;;;;-1.97;85.43;99528.52;1571827;91;20956;-79
2022/01/09 04:37:34;;;;;;;46.77;24.82;;;;;;;-2.01;85.48;99525.92;1562298;91;20981;-79
2022/01/09 04:40:04;;;;;;;46.85;24.45;;;;;;;-2.04;85.38;99531.35;1571650;91;20981;-79
2022/01/09 04:42:38;;;;;;;45.43;24.60;;;;;;;-2.09;85.41;99542.70;1570345;91;20988;-79
2022/01/09 04:44:58;;;;;;;49.73;23.73;;;;;;;-2.11;85.42;99539.70;1549146;91;20985;-79
2022/01/09 04:47:24;;;;;;;45.10;24.15;;;;;;;-2.14;85.33;99541.77;1547681;92;20949;-79
2022/01/09 04:49:50;;;;;;;48.83;26.27;;;;;;;-2.19;85.29;99554.76;1547846;92;21811;-79
2022/01/09 04:52:20;;;;;;;45.65;24.67;;;;;;;-2.23;85.33;99550.47;1551936;91;20941;-79
2022/01/09 04:54:45;;;;;;;41.48;23.42;;;;;;;-2.22;85.44;99547.52;1543199;92;20967;-79
2022/01/09 04:57:12;;;;;;;53.70;23.87;;;;;;;-2.23;85.35;99544.13;1588441;89;20956;-79
2022/01/09 04:59:38;;;;;;;44.42;23.15;;;;;;;-2.27;85.33;99542.38;1597160;89;20973;-79
2022/01/09 05:02:05;;;;;;;47.73;22.52;;;;;;;-2.27;85.38;99536.05;1563337;89;21083;-79
2022/01/09 05:04:30;;;;;;;;;;;;;;;-2.28;85.43;99533.48;1573122;91;20940;-79
2022/01/09 05:06:56;;;;;;;49.65;25.32;;;;;;;-2.28;85.45;99534.34;1565503;91;20251;-79
2022/01/09 05:09:22;;;;;;;42.88;24.02;;;;;;;-2.30;85.39;99528.39;1545984;92;21163;-79
2022/01/09 05:11:48;;;;;;;47.00;22.77;;;;;;;-2.34;85.35;99530.02;1522201;92;21119;-79
2022/01/09 05:14:14;;;;;;;43.42;23.62;;;;;;;-2.37;85.25;99534.17;1565631;90;20925;-79
2022/01/09 05:16:44;;;;;;;47.70;23.80;;;;;;;-2.42;85.33;99525.64;1541697;91;21672;-79
2022/01/09 05:19:17;;;;;;;48.52;23.98;;;;;;;-2.41;85.46;99530.73;1545613;92;21115;-79
2022/01/09 05:21:36;;;;;;;49.90;24.35;;;;;;;-2.44;85.37;99531.94;1545192;91;21099;-79
2022/01/09 05:24:03;;;;;;;54.40;25.92;;;;;;;-2.49;85.42;99525.94;1556920;91;21107;-79
2022/01/09 05:26:29;;;;;;;52.67;25.77;;;;;;;-2.48;85.45;99517.93;1561283;89;21109;-79
2022/01/09 05:28:55;;;;;;;52.05;26.25;;;;;;;-2.50;85.39;99521.70;1531703;92;20957;-79
2022/01/09 05:31:21;;;;;;;46.98;25.55;;;;;;;-2.53;85.39;99519.11;1523953;92;20994;-79
2022/01/09 05:33:47;;;;;;;53.28;25.45;;;;;;;-2.54;85.40;99517.41;1530873;92;21056;-79
2022/01/09 05:36:13;;;;;;;48.65;26.35;;;;;;;-2.56;85.42;99525.38;1531748;92;20957;-79
2022/01/09 05:38:39;;;;;;;58.15;26.42;;;;;;;-2.58;85.42;99524.50;1528558;92;21129;-79
2022/01/09 05:41:05;;;;;;;58.87;27.67;;;;;;;-2.59;85.46;99524.05;1533386;90;20914;-79
2022/01/09 05:43:32;;;;;;;;;;;;;;;-2.58;85.50;99520.70;1551741;92;21065;-79
2022/01/09 05:45:58;;;;;;;;;;;;;;;-2.59;85.45;99514.34;1548881;91;20192;-79
2022/01/09 05:48:24;;;;;;;58.98;28.30;;;;;;;-2.60;85.44;99507.61;1551589;91;20263;-79
2022/01/09 05:50:50;;;;;;;54.33;26.57;;;;;;;-2.61;85.39;99513.50;1551158;91;21933;-79
2022/01/09 05:53:16;;;;;;;56.75;26.93;;;;;;;-2.64;85.33;99518.50;1525585;93;20977;-79
2022/01/09 05:55:42;;;;;;;56.65;25.12;;;;;;;-2.67;85.34;99516.77;1538697;90;21145;-79
2022/01/09 05:58:08;;;;;;;50.92;26.37;;;;;;;-2.71;85.29;99522.17;1551771;91;21053;-79
2022/01/09 06:00:34;;;;;;;55.95;26.70;;;;;;;-2.70;85.38;99515.44;1551767;91;21745;-78
2022/01/09 06:03:00;;;;;;;49.67;25.45;;;;;;;-2.70;85.39;99516.70;1551858;92;21580;-78
2022/01/09 06:05:26;;;;;;;64.27;26.60;;;;;;;-2.70;85.40;99516.70;1532881;92;20973;-78
2022/01/09 06:07:52;;;;;;;56.88;27.73;;;;;;;-2.70;85.34;99519.23;1513570;92;21170;-78
2022/01/09 06:10:18;;;;;;;47.80;24.75;;;;;;;-2.72;85.34;99515.41;1551587;91;21035;-78
2022/01/09 06:12:44;;;;;;;55.65;28.10;;;;;;;-2.71;85.39;99518.79;1551341;92;21109;-78
2022/01/09 06:15:11;;;;;;;52.48;28.02;;;;;;;-2.70;85.43;99515.44;1535580;91;21140;-78
2022/01/09 06:17:42;;;;;;;49.03;25.27;;;;;;;-2.70;85.42;99514.17;1537881;92;21100;-79
2022/01/09 06:20:12;;;;;;;51.33;25.97;;;;;;;-2.71;85.34;99510.79;1527358;92;21403;-79
2022/01/09 06:22:39;;;;;;;50.67;25.82;;;;;;;-2.72;85.38;99505.70;1530172;93;20969;-79
2022/01/09 06:25:07;;;;;;;49.40;25.25;;;;;;;-2.72;85.34;99503.17;1530075;93;20997;-79
2022/01/09 06:27:33;;;;;;;49.48;25.55;;;;;;;-2.74;85.32;99506.94;1542011;90;21035;-79
2022/01/09 06:29:59;;;;;;;;;;;;;;;-2.73;85.35;99502.31;1523815;93;21143;-79
2022/01/09 06:32:25;;;;;;;43.40;22.55;;;;;;;-2.72;85.40;99511.61;1528139;92;20804;-79
2022/01/09 06:34:51;;;;;;;50.63;24.85;;;;;;;-2.71;85.36;99504.47;1539747;92;20991;-79
2022/01/09 06:37:17;;;;;;;54.50;26.60;;;;;;;-2.72;85.37;99519.20;1550273;92;20974;-79
2022/01/09 06:39:44;;;;;;;44.60;22.77;;;;;;;-2.70;85.42;99512.91;1545031;92;20918;-79
2022/01/09 06:42:11;;;;;;;55.23;27.65;;;;;;;-2.69;85.40;99510.41;1541415;91;20994;-78
2022/01/09 06:44:37;;;;;;;;;;;;;;;-2.68;85.40;99513.79;1533827;93;20993;-78
2022/01/09 06:47:03;;;;;;;50.17;25.50;;;;;;;-2.69;85.34;99507.02;1544069;91;20113;-78
2022/01/09 06:49:30;;;;;;;54.08;26.80;;;;;;;-2.70;85.35;99504.05;1542240;92;20998;-78
2022/01/09 06:51:56;;;;;;;48.63;26.25;;;;;;;-2.72;85.33;99500.64;1521785;93;21610;-78
2022/01/09 06:54:22;;;;;;;49.65;25.62;;;;;;;-2.74;85.32;99507.34;1522419;92;20953;-79
2022/01/09 06:56:48;;;;;;;50.25;25.35;;;;;;;-2.75;85.33;99508.17;1580865;89;21628;-78
2022/01/09 06:59:14;;;;;;;47.33;24.92;;;;;;;-2.75;85.33;99514.50;1551778;91;21010;-78
2022/01/09 07:01:40;;;;;;;45.65;24.10;;;;;;;-2.76;85.34;99510.26;1561830;89;20915;-78
2022/01/09 07:04:06;;;;;;;44.63;24.55;;;;;;;-2.77;85.34;99513.20;1562390;91;21060;-79
2022/01/09 07:06:32;;;;;;;45.95;25.45;;;;;;;-2.77;85.36;99512.34;1568468;91;21148;-79
2022/01/09 07:08:58;;;;;;;55.05;25.65;;;;;;;-2.77;85.32;99515.73;1568381;91;21746;-79
2022/01/09 07:11:24;;;;;;;44.60;23.15;;;;;;;-2.79;85.31;99509.78;1561584;89;20954;-79
2022/01/09 07:13:50;;;;;;;46.88;25.32;;;;;;;-2.78;85.35;99510.64;1556185;90;20942;-79
2022/01/09 07:16:16;;;;;;;49.83;24.82;;;;;;;-2.78;85.30;99509.38;1554316;90;21009;-79
2022/01/09 07:18:43;;;;;;;53.20;25.82;;;;;;;-2.79;85.35;99508.52;1554101;90;21169;-78
2022/01/09 07:21:08;;;;;;;;;;;;;;;-2.79;85.28;99508.52;1560675;90;21107;-79
2022/01/09 07:23:34;;;;;;;46.85;23.27;;;;;;;-2.80;85.32;99500.48;1554748;90;20163;-79
2022/01/09 07:26:00;;;;;;;48.40;24.63;;;;;;;-2.78;85.34;99497.98;1553549;90;21104;-79
2022/01/09 07:28:27;;;;;;;46.30;23.75;;;;;;;-2.79;85.33;99497.14;1550414;91;21426;-79
2022/01/09 07:30:53;;;;;;;45.67;23.65;;;;;;;-2.78;85.37;99496.73;1575168;89;21153;-79
2022/01/09 07:33:19;;;;;;;40.48;22.45;;;;;;;-2.75;85.40;99495.52;1552876;90;21094;-79
2022/01/09 07:35:45;;;;;;;47.80;25.00;;;;;;;-2.74;85.37;99495.96;1561351;90;20942;-79
2022/01/09 07:38:11;;;;;;;53.02;24.23;;;;;;;-2.71;85.36;99490.96;1545129;91;21093;-79
2022/01/09 07:40:37;;;;;;;45.33;23.70;;;;;;;-2.66;85.42;99494.43;1560005;90;21370;-79
2022/01/09 07:43:03;;;;;;;43.25;22.65;;;;;;;-2.62;85.42;99492.41;1556314;90;21789;-78
2022/01/09 07:45:30;;;;;;;43.68;21.68;;;;;;;-2.57;85.44;99492.04;1557933;90;21010;-81
2022/01/09 07:47:58;;;;;;;;;;;;;;;-2.51;85.45;99501.02;1559521;91;21095;-77
2022/01/09 07:50:27;;;;;;;44.35;22.77;;;;;;;-2.46;85.45;99498.56;1552705;91;20130;-77
2022/01/09 07:52:53;;;;;;;47.70;22.65;;;;;;;-2.41;85.44;99495.70;1555876;90;20980;-77
2022/01/09 07:55:20;;;;;;;39.85;21.25;;;;;;;-2.40;85.40;99499.53;1539532;90;20927;-77
2022/01/09 07:57:48;;;;;;;45.75;22.80;;;;;;;-2.37;85.41;99498.32;1581302;90;21503;-77
2022/01/09 08:00:16;;;;;;;42.40;22.25;;;;;;;-2.31;85.42;99499.25;1566768;91;21147;-77
2022/01/09 08:02:44;;;;;;;41.23;20.90;;;;;;;-2.28;85.45;99496.36;1570648;89;21078;-77
2022/01/09 08:05:12;;;;;;;42.80;22.50;;;;;;;-2.24;85.44;99493.47;1589060;89;21032;-77
2022/01/09 08:07:39;;;;;;;41.08;22.10;;;;;;;-2.21;85.41;99496.91;1586703;89;21143;-77
2022/01/09 08:10:05;;;;;;;;;;;;;;;-2.19;85.36;99499.05;1587898;89;21581;-77
2022/01/09 08:12:31;;;;;;;48.73;24.45;;;;;;;-2.18;85.37;99500.76;1563064;91;20201;-77
2022/01/09 08:14:58;;;;;;;46.42;23.98;;;;;;;-2.16;85.34;99499.52;1568211;89;21116;-77
2022/01/09 08:17:24;;;;;;;57.27;27.35;;;;;;;-2.14;85.38;99492.80;1568814;89;21078;-78
2022/01/09 08:19:51;;;;;;;64.97;30.40;;;;;;;-2.10;85.44;99490.34;1589452;89;21158;-77
2022/01/09 08:22:18;;;;;;;65.00;30.57;;;;;;;-2.06;85.45;99489.54;1599630;89;21110;-77
2022/01/09 08:24:44;;;;;;;58.30;29.75;;;;;;;-2.02;85.42;99493.83;1575011;90;21092;-77
2022/01/09 08:27:10;;;;;;;64.85;32.00;;;;;;;-2.01;85.38;99503.55;1558742;89;21411;-77
2022/01/09 08:29:39;;;;;;;66.12;30.45;;;;;;;-2.01;85.33;99493.41;1565526;91;21681;-77
2022/01/09 08:32:07;;;;;;;57.83;28.10;;;;;;;-2.01;85.33;99495.53;1573502;89;21178;-77
2022/01/09 08:34:33;;;;;;;54.88;26.80;;;;;;;-2.00;85.30;99493.85;1582096;89;21125;-76
2022/01/09 08:37:00;;;;;;;61.18;29.92;;;;;;;-2.00;85.28;99493.44;1587551;90;21014;-76
2022/01/09 08:39:26;;;;;;;57.78;27.62;;;;;;;-2.01;85.28;99495.53;1572645;90;21927;-76
2022/01/09 08:41:53;;;;;;;56.85;28.42;;;;;;;-1.98;85.34;99488.81;1569776;91;21621;-76
2022/01/09 08:44:19;;;;;;;57.15;27.50;;;;;;;-2.00;85.32;99480.77;1569063;91;21061;-76
2022/01/09 08:46:45;;;;;;;51.33;26.77;;;;;;;-2.00;85.30;99479.51;1558348;91;20960;-76
2022/01/09 08:49:11;;;;;;;60.40;28.35;;;;;;;-1.98;85.32;99486.28;1547755;91;20915;-76
2022/01/09 08:51:37;;;;;;;55.70;27.65;;;;;;;-1.97;85.34;99490.10;1575588;89;21068;-76
2022/01/09 08:54:03;;;;;;;58.13;26.87;;;;;;;-1.95;85.35;99483.37;1574649;89;21024;-76
2022/01/09 08:56:30;;;;;;;49.30;26.00;;;;;;;-1.96;85.31;99482.94;1567351;89;21189;-72
2022/01/09 08:59:01;;;;;;;61.45;28.77;;;;;;;-1.95;85.39;99483.37;1569980;89;21077;-72
2022/01/09 09:01:24;;;;;;;53.33;26.35;;;;;;;-1.93;85.41;99480.45;1574473;89;21090;-72
2022/01/09 09:03:50;;;;;;;50.88;24.90;;;;;;;-1.88;85.46;99485.19;1577902;89;22214;-72
2022/01/09 09:06:17;;;;;;;45.98;24.67;;;;;;;-1.83;85.48;99487.79;1570379;89;28438;-72
2022/01/09 09:08:44;;;;;;;45.63;25.12;;;;;;;-1.79;85.47;99480.26;1541463;91;21076;-72
2022/01/09 09:11:12;;;;;;;40.03;21.20;;;;;;;-1.75;85.43;99474.83;1587219;89;21100;-72
2022/01/09 09:13:39;;;;;;;40.35;21.97;;;;;;;-1.71;85.46;99481.64;1578709;90;21029;-72
2022/01/09 09:16:06;;;;;;;40.12;20.97;;;;;;;-1.67;85.48;99479.18;1571156;89;21097;-72
2022/01/09 09:18:32;;;;;;;41.60;22.17;;;;;;;-1.64;85.44;99477.10;1555176;90;21517;-72
2022/01/09 09:20:59;;;;;;;38.48;20.45;;;;;;;-1.61;85.42;99477.14;1557975;90;21049;-72
2022/01/09 09:23:25;;;;;;;38.50;21.17;;;;;;;-1.58;85.42;99482.27;1562376;90;21069;-72
2022/01/09 09:25:52;;;;;;;44.50;20.45;;;;;;;-1.53;85.48;99483.56;1546643;91;21533;-72
2022/01/09 09:28:18;;;;;;;;;;;;;;;-1.51;85.41;99485.29;1540440;91;21111;-72
2022/01/09 09:30:44;;;;;;;38.80;20.97;;;;;;;-1.49;85.35;99487.43;1552713;90;20923;-72
2022/01/09 09:33:10;;;;;;;40.17;20.75;;;;;;;-1.46;85.38;99486.20;1560387;90;21658;-72
2022/01/09 09:35:37;;;;;;;38.10;20.90;;;;;;;-1.44;85.41;99488.34;1567311;89;21567;-78
2022/01/09 09:38:04;;;;;;;38.78;21.85;;;;;;;-1.41;85.41;99478.66;1542346;91;21112;-78
2022/01/09 09:40:32;;;;;;;42.43;21.82;;;;;;;-1.38;85.38;99474.91;1553263;90;21621;-77
2022/01/09 09:42:59;;;;;;;37.35;20.17;;;;;;;-1.36;85.37;99473.24;1563193;90;21652;-77
2022/01/09 09:45:25;;;;;;;37.03;20.70;;;;;;;-1.31;85.43;99477.96;1549529;90;21540;-77
2022/01/09 09:47:52;;;;;;;37.00;20.25;;;;;;;-1.26;85.43;99472.95;1550428;90;21672;-77
2022/01/09 09:50:20;;;;;;;39.13;20.90;;;;;;;-1.22;85.45;99475.55;1558777;90;21523;-78
2022/01/09 09:52:48;;;;;;;39.00;20.45;;;;;;;-1.16;85.46;99470.55;1546305;91;21581;-80
2022/01/09 09:55:17;;;;;;;36.23;19.35;;;;;;;-1.10;85.46;99471.90;1561998;91;20983;-81
2022/01/09 09:57:44;;;;;;;37.08;20.25;;;;;;;-1.03;85.45;99479.13;1559568;90;21411;-80
2022/01/09 10:00:16;;;;;;;35.65;18.98;;;;;;;-0.98;85.41;99469.05;1556742;90;21546;-80
2022/01/09 10:02:56;;;;;;;35.52;19.77;;;;;;;-0.94;85.39;99469.52;1565115;90;21402;-80
2022/01/09 10:05:26;;;;;;;41.35;21.57;;;;;;;-0.90;85.37;99462.38;1567167;90;21593;-80
2022/01/09 10:07:54;;;;;;;41.08;22.35;;;;;;;-0.86;85.40;99462.42;1543849;91;21622;-80
2022/01/09 10:10:25;;;;;;;35.58;18.50;;;;;;;-0.81;85.35;99465.02;1554449;91;21554;-80
2022/01/09 10:12:51;;;;;;;41.50;21.52;;;;;;;-0.78;85.35;99465.91;1547588;89;21582;-80
2022/01/09 10:15:19;;;;;;;36.03;19.77;;;;;;;-0.71;85.40;99467.67;1562705;89;20951;-80
2022/01/09 10:17:49;;;;;;;37.78;20.57;;;;;;;-0.65;85.40;99469.42;1586884;89;21926;-80
2022/01/09 10:20:19;;;;;;;34.85;19.50;;;;;;;-0.59;85.39;99471.18;1573771;89;21781;-80
2022/01/09 10:22:50;;;;;;;34.65;18.87;;;;;;;-0.55;85.39;99467.42;1561899;89;21317;-80
2022/01/09 10:25:36;;;;;;;39.05;20.30;;;;;;;-0.48;85.36;99472.95;1590230;89;20962;-80
2022/01/09 10:28:17;;;;;;;37.28;20.05;;;;;;;-0.45;85.26;99474.26;1557226;91;20975;-80
2022/01/09 10:30:47;;;;;;;39.05;20.32;;;;;;;-0.39;85.34;99470.93;1546686;92;21608;-80
2022/01/09 10:33:21;;;;;;;42.95;21.60;;;;;;;-0.35;85.32;99473.52;1530611;93;21092;-80
2022/01/09 10:35:49;;;;;;;34.98;20.25;;;;;;;-0.33;85.26;99464.64;1540270;92;21600;-80
2022/01/09 10:38:27;;;;;;;42.65;22.07;;;;;;;-0.29;85.27;99466.38;1553985;92;21738;-80
2022/01/09 10:41:00;;;;;;;39.95;20.70;;;;;;;-0.27;85.27;99467.23;1561833;91;21569;-80
2022/01/09 10:43:41;;;;;;;44.65;23.90;;;;;;;-0.26;85.26;99463.86;1545324;91;21568;-80
2022/01/09 10:46:09;;;;;;;38.10;19.98;;;;;;;-0.24;85.23;99450.75;1550615;91;22209;-80
2022/01/09 10:48:40;;;;;;;44.35;23.27;;;;;;;-0.23;85.23;99464.30;1540589;92;21595;-80
2022/01/09 10:51:11;;;;;;;43.83;23.73;;;;;;;-0.26;85.18;99463.01;1532374;92;21599;-80
2022/01/09 10:53:41;;;;;;;40.43;22.98;;;;;;;-0.29;85.15;99449.86;1521298;93;21157;-80
2022/01/09 10:56:21;;;;;;;44.98;23.07;;;;;;;-0.32;85.12;99443.91;1545533;90;21688;-80
2022/01/09 10:58:54;;;;;;;46.15;24.35;;;;;;;-0.32;85.17;99447.71;1550645;92;21512;-80
2022/01/09 11:01:25;;;;;;;45.15;22.70;;;;;;;-0.32;85.19;99446.02;1535533;92;21818;-80
2022/01/09 11:04:04;;;;;;;46.13;25.17;;;;;;;-0.31;85.19;99447.73;1521701;92;21135;-80
2022/01/09 11:06:32;;;;;;;42.43;23.92;;;;;;;-0.29;85.17;99439.70;1558506;91;21463;-80
2022/01/09 11:09:00;;;;;;;45.38;25.30;;;;;;;-0.28;85.21;99431.24;1534083;92;21466;-80
2022/01/09 11:11:35;;;;;;;44.88;23.57;;;;;;;-0.26;85.22;99432.11;1552845;92;20981;-80
2022/01/09 11:14:02;;;;;;;45.35;24.37;;;;;;;-0.25;85.21;99432.96;1545712;92;21395;-80
2022/01/09 11:16:37;;;;;;;51.02;26.80;;;;;;;-0.24;85.13;99438.05;1536208;91;20954;-80
2022/01/09 11:19:15;;;;;;;50.48;26.70;;;;;;;-0.21;85.21;99434.27;1553559;89;21146;-80
2022/01/09 11:21:52;;;;;;;53.30;26.85;;;;;;;-0.19;85.18;99428.78;1572983;89;20937;-80
2022/01/09 11:24:58;;;;;;;51.63;26.80;;;;;;;-0.16;85.22;99427.54;1570244;89;21595;-80